Time;durP1;ratioP1;P1;durP2;ratioP2;P2;SDS_P1;SDS_P2;PMS_P1;PMS_P2;Temp;Humidity;BMP_temperature;BMP_pressure;BME280_temperature;BME280_humidity;BME280_pressure;Samples;Min_cycle;Max_cycle;Signal;HPM_P1;HPM_P2
2022/06/13 00:01:19;;;;;;;4.47;1.00;;;18.50;64.10;;;;;;5050182;28;20029;-72
2022/06/13 00:03:46;;;;;;;6.60;1.67;;;18.40;64.40;;;;;;5034880;28;20041;-72
2022/06/13 00:06:13;;;;;;;3.50;1.10;;;18.30;64.60;;;;;;5043991;28;20044;-73
2022/06/13 00:08:40;;;;;;;4.40;1.30;;;18.30;64.90;;;;;;5034190;28;20033;-71
2022/06/13 00:11:09;;;;;;;6.53;1.40;;;18.20;65.50;;;;;;5032537;28;20236;-73
2022/06/13 00:13:37;;;;;;;6.03;2.00;;;18.10;65.70;;;;;;5031363;28;20475;-75
2022/06/13 00:16:04;;;;;;;5.72;1.55;;;18.10;66.60;;;;;;5032677;28;20037;-74
2022/06/13 00:18:30;;;;;;;6.85;1.17;;;18.10;66.80;;;;;;5031796;28;20117;-74
2022/06/13 00:20:56;;;;;;;5.75;1.30;;;18.10;66.40;;;;;;5031066;28;20046;-74
2022/06/13 00:23:23;;;;;;;4.22;1.20;;;18.00;66.50;;;;;;5046594;28;20029;-74
2022/06/13 00:25:49;;;;;;;3.55;1.20;;;17.90;67.30;;;;;;5037449;28;20036;-74
2022/06/13 00:28:15;;;;;;;77.03;7.38;;;17.90;68.20;;;;;;5032646;28;20029;-72
2022/06/13 00:30:41;;;;;;;5.65;1.45;;;17.80;67.80;;;;;;5043386;28;20386;-72
2022/06/13 00:33:07;;;;;;;6.75;1.63;;;17.80;69.60;;;;;;5040606;28;20033;-72
2022/06/13 00:35:34;;;;;;;6.63;2.10;;;17.70;69.30;;;;;;5046950;28;20045;-72
2022/06/13 00:38:00;;;;;;;5.45;1.33;;;17.60;69.60;;;;;;5032674;28;20053;-72
2022/06/13 00:40:29;;;;;;;9.90;2.00;;;17.40;69.30;;;;;;5032767;28;20038;-72
2022/06/13 00:42:55;;;;;;;4.50;1.13;;;17.30;70.50;;;;;;5038060;28;20045;-72
2022/06/13 00:45:24;;;;;;;4.43;1.48;;;17.20;72.30;;;;;;5048106;28;20025;-72
2022/06/13 00:47:54;;;;;;;8.27;7.55;;;17.10;73.30;;;;;;5047664;28;20034;-72
2022/06/13 00:50:29;;;;;;;3.80;1.13;;;17.00;74.30;;;;;;5040239;28;20048;-72
2022/06/13 00:53:07;;;;;;;50.40;5.88;;;16.70;75.70;;;;;;5032570;28;20040;-72
2022/06/13 00:55:43;;;;;;;7.80;1.63;;;16.50;78.00;;;;;;5032624;28;20038;-72
2022/06/13 00:58:11;;;;;;;4.65;1.17;;;16.50;80.50;;;;;;5032445;28;20038;-72
2022/06/13 01:00:38;;;;;;;4.75;1.42;;;16.50;83.00;;;;;;5032432;28;20036;-72
2022/06/13 01:03:05;;;;;;;6.15;1.48;;;16.40;85.00;;;;;;5031932;28;20041;-72
2022/06/13 01:05:37;;;;;;;6.35;3.05;;;16.20;85.60;;;;;;5044548;28;20029;-72
2022/06/13 01:08:07;;;;;;;4.35;1.40;;;16.10;86.70;;;;;;5032117;28;20037;-72
2022/06/13 01:13:53;;;;;;;5.13;1.50;;;16.10;89.50;;;;;;5046146;28;20053;-73
2022/06/13 01:16:46;;;;;;;4.82;1.35;;;16.00;90.60;;;;;;5031976;28;20040;-72
2022/06/13 01:19:33;;;;;;;6.18;1.60;;;16.00;91.30;;;;;;5044076;28;20048;-72
2022/06/13 01:22:06;;;;;;;6.68;2.53;;;15.90;92.10;;;;;;5037170;28;20033;-72
2022/06/13 01:25:09;;;;;;;7.10;2.45;;;15.90;92.30;;;;;;5033751;28;20033;-72
2022/06/13 01:27:56;;;;;;;4.93;1.45;;;15.80;92.70;;;;;;5041161;28;20486;-72
2022/06/13 01:30:31;;;;;;;7.47;1.60;;;15.80;93.00;;;;;;5035641;28;20037;-72
2022/06/13 01:33:18;;;;;;;4.35;1.60;;;15.70;93.40;;;;;;5035894;28;20056;-72
2022/06/13 01:35:59;;;;;;;5.47;1.60;;;15.50;93.90;;;;;;5035374;28;20041;-73
2022/06/13 01:38:57;;;;;;;4.00;1.50;;;15.30;94.60;;;;;;5035875;28;20050;-72
2022/06/13 01:41:47;;;;;;;4.47;1.75;;;15.10;95.50;;;;;;5043508;28;20051;-74
2022/06/13 01:44:32;;;;;;;4.32;1.45;;;15.10;95.60;;;;;;5035960;28;20042;-72
2022/06/13 01:47:31;;;;;;;8.45;1.70;;;15.00;95.50;;;;;;5035127;28;20041;-72
2022/06/13 01:50:36;;;;;;;6.53;1.80;;;15.00;95.20;;;;;;5034984;28;20097;-72
2022/06/13 01:53:34;;;;;;;6.43;1.75;;;14.90;95.30;;;;;;5056437;28;20036;-73
2022/06/13 01:56:07;;;;;;;7.03;2.25;;;14.80;95.50;;;;;;5031816;28;20056;-74
2022/06/13 01:58:58;;;;;;;6.90;1.67;;;14.80;95.80;;;;;;5036859;28;20038;-72
2022/06/13 02:01:50;;;;;;;7.88;2.00;;;14.70;95.60;;;;;;5045569;28;20455;-74
2022/06/13 02:04:22;;;;;;;3.67;1.55;;;14.70;95.70;;;;;;5035403;28;20376;-73
2022/06/13 02:07:14;;;;;;;6.28;1.55;;;14.70;95.30;;;;;;5035321;28;20048;-73
2022/06/13 02:09:47;;;;;;;9.57;2.25;;;14.70;95.50;;;;;;5035066;28;20423;-72
2022/06/13 02:12:15;;;;;;;4.97;1.70;;;14.70;95.40;;;;;;5034263;28;20041;-72
2022/06/13 02:14:49;;;;;;;4.45;1.95;;;14.60;95.40;;;;;;5034991;28;20056;-72
2022/06/13 02:17:18;;;;;;;4.35;1.60;;;14.60;95.60;;;;;;5035330;28;20501;-72
2022/06/13 02:20:02;;;;;;;10.32;2.10;;;14.60;95.50;;;;;;5049596;28;20398;-73
2022/06/13 02:22:36;;;;;;;5.70;1.75;;;14.60;95.60;;;;;;5035521;28;20497;-72
2022/06/13 02:25:21;;;;;;;7.07;2.78;;;14.50;95.90;;;;;;5040590;28;20032;-72
2022/06/13 02:28:18;;;;;;;6.22;2.15;;;14.50;96.10;;;;;;5054205;28;20041;-72
2022/06/13 02:30:51;;;;;;;5.10;2.00;;;14.40;96.40;;;;;;5035691;28;20051;-72
2022/06/13 02:33:31;;;;;;;5.32;1.83;;;14.30;96.90;;;;;;5042517;28;20044;-72
2022/06/13 02:36:22;;;;;;;5.50;1.77;;;14.30;97.00;;;;;;5034214;28;20491;-73
2022/06/13 02:39:02;;;;;;;6.40;2.20;;;14.30;97.20;;;;;;5028192;28;20076;-72
2022/06/13 02:41:46;;;;;;;4.93;2.17;;;14.20;97.40;;;;;;5042405;28;20040;-73
2022/06/13 02:44:20;;;;;;;4.97;2.05;;;14.20;97.70;;;;;;5033658;28;20034;-72
2022/06/13 02:46:56;;;;;;;8.70;2.22;;;14.20;98.00;;;;;;5033743;28;20042;-73
2022/06/13 02:49:38;;;;;;;3.53;1.58;;;14.10;98.60;;;;;;5038503;28;20037;-72
2022/06/13 02:52:04;;;;;;;7.97;1.80;;;14.10;98.90;;;;;;5044850;28;20418;-72
2022/06/13 02:54:33;;;;;;;6.35;1.92;;;14.00;99.40;;;;;;5038183;28;20048;-72
2022/06/13 02:57:29;;;;;;;6.18;2.00;;;14.00;99.90;;;;;;5033389;28;20037;-72
2022/06/13 03:00:14;;;;;;;5.05;2.40;;;13.80;99.90;;;;;;5051321;28;20033;-73
2022/06/13 03:02:52;;;;;;;5.82;2.25;;;13.70;99.90;;;;;;5033396;28;20029;-72
2022/06/13 03:05:33;;;;;;;10.82;2.85;;;13.70;99.90;;;;;;5032595;28;20483;-72
2022/06/13 03:08:23;;;;;;;6.63;1.83;;;13.70;99.90;;;;;;5033621;28;20482;-72
2022/06/13 03:11:39;;;;;;;3.47;1.83;;;13.80;99.90;;;;;;5038515;28;20029;-73
2022/06/13 03:14:20;;;;;;;5.38;2.30;;;13.80;99.90;;;;;;5035373;28;20054;-72
2022/06/13 03:17:02;;;;;;;7.00;1.95;;;13.80;99.90;;;;;;5033547;28;20137;-73
2022/06/13 03:19:47;;;;;;;7.63;2.10;;;13.70;99.90;;;;;;5036486;28;20040;-73
2022/06/13 03:22:21;;;;;;;4.80;1.70;;;13.60;99.90;;;;;;5038559;28;20289;-72
2022/06/13 03:25:07;;;;;;;9.60;2.35;;;13.50;99.90;;;;;;5033389;28;20033;-72
2022/06/13 03:27:44;;;;;;;4.43;2.10;;;13.50;99.90;;;;;;5033544;28;20041;-72
2022/06/13 03:30:18;;;;;;;5.85;2.10;;;13.50;99.90;;;;;;5058376;28;20048;-73
2022/06/13 03:33:40;;;;;;;12.43;2.63;;;13.50;99.90;;;;;;5038369;28;20030;-73
2022/06/13 03:35:38;;;;;;;5.90;1.77;;;13.50;99.90;;;;;;5033229;28;20041;-73
2022/06/13 03:38:07;;;;;;;6.95;2.75;;;13.50;99.90;;;;;;5037174;28;20045;-73
2022/06/13 03:40:39;;;;;;;7.85;2.65;;;13.40;99.90;;;;;;5038764;28;20037;-73
2022/06/13 03:43:19;;;;;;;4.70;2.20;;;13.50;99.90;;;;;;5032405;28;20053;-73
2022/06/13 03:46:10;;;;;;;7.15;2.65;;;13.50;99.90;;;;;;5040594;28;20037;-73
2022/06/13 03:48:47;;;;;;;9.82;2.20;;;13.40;99.90;;;;;;5032503;28;20049;-73
2022/06/13 03:51:23;;;;;;;7.97;2.40;;;13.40;99.90;;;;;;5032258;28;20036;-73
2022/06/13 03:54:06;;;;;;;6.68;2.95;;;13.50;99.90;;;;;;5031858;28;20627;-72
2022/06/13 03:56:41;;;;;;;8.00;2.20;;;13.50;99.90;;;;;;5032816;28;20030;-73
2022/06/13 03:59:22;;;;;;;4.38;1.85;;;13.50;99.90;;;;;;5032240;28;20033;-72
2022/06/13 04:01:59;;;;;;;5.30;2.10;;;13.60;99.90;;;;;;5032984;28;20037;-72
2022/06/13 04:04:32;;;;;;;6.82;2.22;;;13.70;99.90;;;;;;5032657;28;20040;-72
2022/06/13 04:07:01;;;;;;;7.85;2.05;;;13.80;99.90;;;;;;5032514;28;20049;-73
2022/06/13 04:09:39;;;;;;;6.22;2.15;;;13.80;99.90;;;;;;5032387;28;20037;-72
2022/06/13 04:12:26;;;;;;;6.57;2.33;;;13.80;99.90;;;;;;5031932;28;20048;-73
2022/06/13 04:15:30;;;;;;;6.10;2.30;;;13.90;99.90;;;;;;5032234;28;20104;-74
2022/06/13 04:18:39;;;;;;;4.32;1.55;;;14.00;99.90;;;;;;5031991;28;20041;-72
2022/06/13 04:21:24;;;;;;;4.45;1.38;;;14.70;99.90;;;;;;5031939;28;20390;-72
2022/06/13 04:24:12;;;;;;;6.15;1.88;;;15.60;97.70;;;;;;5032658;28;20040;-72
2022/06/13 04:26:50;;;;;;;9.25;1.50;;;16.20;95.50;;;;;;5019873;28;20052;-72
2022/06/13 04:29:26;;;;;;;4.60;1.60;;;16.40;94.30;;;;;;5031873;28;20033;-72
2022/06/13 04:31:58;;;;;;;4.15;1.77;;;16.50;93.90;;;;;;5040792;28;20040;-73
2022/06/13 04:34:30;;;;;;;5.53;1.90;;;16.80;93.20;;;;;;5039876;28;20033;-72
2022/06/13 04:36:58;;;;;;;7.07;1.85;;;16.40;93.70;;;;;;5048388;28;20474;-72
2022/06/13 04:39:30;;;;;;;6.00;1.73;;;16.20;93.60;;;;;;5039502;28;20044;-72
2022/06/13 04:41:59;;;;;;;6.25;2.00;;;16.40;93.50;;;;;;5046926;28;20045;-73
2022/06/13 04:44:29;;;;;;;4.05;2.13;;;16.60;92.50;;;;;;5044136;28;20044;-72
2022/06/13 04:46:56;;;;;;;7.53;2.10;;;16.40;92.80;;;;;;5032168;28;20041;-72
2022/06/13 04:49:44;;;;;;;6.07;1.77;;;16.10;93.40;;;;;;5047013;28;20029;-72
2022/06/13 04:52:16;;;;;;;5.68;1.67;;;16.20;93.60;;;;;;5031661;28;20034;-72
2022/06/13 04:54:49;;;;;;;5.65;1.70;;;16.30;93.40;;;;;;5031696;28;20029;-72
2022/06/13 04:57:17;;;;;;;3.55;1.33;;;16.40;92.90;;;;;;5031728;28;20049;-72
2022/06/13 04:59:44;;;;;;;6.05;1.85;;;17.20;91.70;;;;;;5030693;28;20056;-73
2022/06/13 05:02:23;;;;;;;6.97;1.45;;;17.50;90.30;;;;;;5031440;28;20033;-73
2022/06/13 05:04:50;;;;;;;4.78;1.60;;;17.80;88.70;;;;;;5034513;28;20030;-73
2022/06/13 05:07:20;;;;;;;4.07;1.60;;;17.70;87.50;;;;;;5044851;28;20044;-73
2022/06/13 05:09:57;;;;;;;8.03;1.37;;;18.20;84.70;;;;;;5047492;28;20021;-73
2022/06/13 05:12:31;;;;;;;3.13;1.50;;;18.40;82.80;;;;;;5035923;28;20046;-73
2022/06/13 05:15:09;;;;;;;4.55;1.80;;;18.50;81.70;;;;;;5035612;28;20025;-74
2022/06/13 05:17:54;;;;;;;4.05;1.48;;;19.00;81.00;;;;;;5042992;28;20061;-73
2022/06/13 05:20:43;;;;;;;7.75;1.88;;;18.90;77.70;;;;;;5043918;28;20378;-74
2022/06/13 05:23:40;;;;;;;6.15;1.65;;;18.70;77.80;;;;;;5035371;28;20060;-73
2022/06/13 05:26:08;;;;;;;5.93;1.73;;;19.00;77.60;;;;;;5053321;28;20029;-73
2022/06/13 05:28:35;;;;;;;7.75;1.65;;;19.60;75.40;;;;;;5039921;28;20037;-75
2022/06/13 05:31:09;;;;;;;3.75;1.90;;;20.00;73.40;;;;;;5035646;28;20033;-74
2022/06/13 05:33:38;;;;;;;4.05;1.10;;;19.80;71.50;;;;;;5043930;28;20028;-72
2022/06/13 05:36:08;;;;;;;5.95;1.83;;;19.40;73.10;;;;;;5045428;28;20033;-73
2022/06/13 05:38:41;;;;;;;3.75;1.15;;;19.60;72.90;;;;;;5035480;28;20056;-73
2022/06/13 05:41:08;;;;;;;5.32;1.50;;;19.10;73.90;;;;;;5035515;28;20105;-72
2022/06/13 05:43:35;;;;;;;3.33;1.05;;;19.40;73.40;;;;;;5035327;28;20045;-73
2022/06/13 05:46:03;;;;;;;4.70;1.67;;;19.80;71.20;;;;;;5034902;28;20038;-73
2022/06/13 05:48:30;;;;;;;6.47;1.65;;;20.10;69.30;;;;;;5034985;28;20463;-71
2022/06/13 05:50:56;;;;;;;4.63;1.10;;;19.70;70.60;;;;;;5049626;28;20040;-75
2022/06/13 05:53:24;;;;;;;6.75;1.75;;;20.60;68.50;;;;;;5039021;28;20033;-71
2022/06/13 05:55:55;;;;;;;2.47;1.38;;;20.30;68.80;;;;;;5034910;28;20040;-72
2022/06/13 05:58:22;;;;;;;4.68;1.65;;;20.10;69.70;;;;;;5039780;28;20037;-71
2022/06/13 06:00:52;;;;;;;5.68;1.40;;;20.30;68.50;;;;;;5046993;28;20037;-72
2022/06/13 06:03:18;;;;;;;;;;;20.80;68.50;;;;;;5052682;28;20052;-71
2022/06/13 06:05:45;;;;;;;5.95;1.60;;;21.80;66.10;;;;;;5043323;28;20392;-72
2022/06/13 06:08:20;;;;;;;5.50;1.45;;;22.00;63.60;;;;;;5034022;28;20040;-72
2022/06/13 06:10:48;;;;;;;11.82;2.00;;;21.20;63.70;;;;;;5052981;28;20021;-71
2022/06/13 06:13:15;;;;;;;6.38;1.65;;;20.30;66.20;;;;;;5035024;28;20075;-71
2022/06/13 06:15:44;;;;;;;6.50;1.40;;;20.20;66.40;;;;;;5034043;28;20041;-72
2022/06/13 06:18:10;;;;;;;7.85;1.88;;;20.50;65.60;;;;;;5033973;28;20046;-73
2022/06/13 06:20:37;;;;;;;6.07;1.73;;;21.20;63.70;;;;;;5034444;28;20033;-72
2022/06/13 06:23:04;;;;;;;7.55;1.40;;;20.60;64.50;;;;;;5034416;28;20037;-72
2022/06/13 06:25:31;;;;;;;5.63;1.50;;;20.80;64.00;;;;;;5034362;28;20029;-72
2022/06/13 06:27:57;;;;;;;3.90;1.17;;;21.20;62.80;;;;;;5034066;28;20143;-77
2022/06/13 06:30:27;;;;;;;3.35;1.70;;;21.00;61.30;;;;;;5043684;28;20033;-72
2022/06/13 06:32:57;;;;;;;4.30;1.42;;;20.80;61.70;;;;;;5053085;28;20033;-73
2022/06/13 06:35:24;;;;;;;;;;;20.90;61.20;;;;;;5036583;28;20038;-74
2022/06/13 06:37:52;;;;;;;3.75;1.38;;;20.70;62.50;;;;;;5034550;28;19921;-74
2022/06/13 06:40:20;;;;;;;9.48;1.73;;;20.80;62.20;;;;;;5048700;28;20044;-72
2022/06/13 06:42:47;;;;;;;7.00;1.63;;;20.90;62.40;;;;;;5036654;28;20033;-72
2022/06/13 06:45:13;;;;;;;4.22;1.38;;;20.60;62.90;;;;;;5052694;28;20033;-72
2022/06/13 06:47:40;;;;;;;3.75;1.38;;;21.20;59.80;;;;;;5036520;28;20033;-71
2022/06/13 06:50:13;;;;;;;5.70;1.65;;;20.90;61.40;;;;;;5033705;28;20026;-74
2022/06/13 06:52:40;;;;;;;4.13;1.70;;;20.70;62.50;;;;;;5034292;28;20104;-73
2022/06/13 07:00:40;;;;;;;7.47;1.40;;;21.50;60.10;;;;;;5040834;28;20052;-72
2022/06/13 07:03:07;;;;;;;5.55;1.75;;;21.50;59.40;;;;;;5048651;28;20029;-72
2022/06/13 07:05:33;;;;;;;8.38;1.70;;;21.70;58.90;;;;;;5033738;28;20033;-72
2022/06/13 07:07:59;;;;;;;5.75;1.60;;;21.30;58.40;;;;;;5046942;28;20033;-75
2022/06/13 07:10:25;;;;;;;5.53;1.45;;;21.20;59.10;;;;;;5040673;28;20030;-74
2022/06/13 07:12:51;;;;;;;4.65;1.73;;;21.20;59.10;;;;;;5033248;28;20053;-75
2022/06/13 07:15:18;;;;;;;6.20;1.75;;;20.90;59.60;;;;;;5033063;28;20264;-74
2022/06/13 07:17:44;;;;;;;4.50;1.77;;;21.10;60.00;;;;;;5032937;28;20417;-75
2022/06/13 07:20:12;;;;;;;7.70;1.70;;;21.10;58.60;;;;;;5040857;28;20395;-74
2022/06/13 07:22:52;;;;;;;5.28;1.58;;;21.60;58.40;;;;;;5033452;28;20056;-72
2022/06/13 07:25:25;;;;;;;3.63;1.60;;;22.00;59.00;;;;;;5032999;28;20033;-74
2022/06/13 07:27:51;;;;;;;4.70;1.60;;;22.20;57.70;;;;;;5045523;28;20047;-73
2022/06/13 07:30:22;;;;;;;4.97;1.73;;;22.50;58.00;;;;;;5039626;28;20462;-73
2022/06/13 07:32:48;;;;;;;4.45;1.77;;;21.60;59.10;;;;;;5042638;28;20036;-73
2022/06/13 07:35:18;;;;;;;5.80;2.50;;;21.80;57.00;;;;;;5041043;28;20044;-73
2022/06/13 07:40:31;;;;;;;7.70;2.47;;;21.20;58.80;;;;;;5032716;28;20406;-73
2022/06/13 07:43:01;;;;;;;6.13;1.80;;;21.70;58.30;;;;;;5032916;28;20045;-74
2022/06/13 07:45:30;;;;;;;4.43;1.70;;;22.70;59.80;;;;;;5033047;28;20490;-73
2022/06/13 07:47:57;;;;;;;6.97;1.70;;;23.20;55.70;;;;;;5032904;28;20450;-72
2022/06/13 07:50:25;;;;;;;5.40;1.33;;;23.10;57.20;;;;;;5032557;28;20399;-72
2022/06/13 07:52:52;;;;;;;7.60;1.67;;;24.10;54.90;;;;;;5032936;28;20029;-71
2022/06/13 07:55:20;;;;;;;3.03;1.17;;;23.70;54.00;;;;;;5039838;28;20662;-74
2022/06/13 07:57:47;;;;;;;6.55;2.15;;;23.00;55.00;;;;;;5032631;28;20052;-70
2022/06/13 08:00:21;;;;;;;5.03;1.55;;;21.80;55.50;;;;;;5032245;28;20045;-73
2022/06/13 08:02:47;;;;;;;3.40;1.63;;;22.00;56.60;;;;;;5032885;28;20459;-71
2022/06/13 08:05:13;;;;;;;7.75;1.95;;;22.20;55.80;;;;;;5043719;28;20040;-73
2022/06/13 08:07:40;;;;;;;5.13;2.03;;;22.10;56.40;;;;;;5040224;28;20036;-73
2022/06/13 08:10:06;;;;;;;5.32;1.75;;;22.50;55.60;;;;;;5032525;28;20048;-74
2022/06/13 08:12:32;;;;;;;6.70;1.63;;;22.00;57.20;;;;;;5044427;28;20060;-74
2022/06/13 08:14:58;;;;;;;3.55;1.73;;;22.40;56.00;;;;;;5032195;28;20041;-77
2022/06/13 08:17:25;;;;;;;5.50;1.60;;;22.40;55.80;;;;;;5032577;28;20040;-72
2022/06/13 08:19:51;;;;;;;2.92;1.38;;;22.70;54.40;;;;;;5032020;28;20033;-73
2022/06/13 08:22:18;;;;;;;5.72;1.38;;;22.70;55.00;;;;;;5031567;28;20048;-75
2022/06/13 08:24:44;;;;;;;4.80;1.10;;;22.60;53.50;;;;;;5047858;28;20032;-74
2022/06/13 08:27:11;;;;;;;5.60;1.33;;;22.70;52.90;;;;;;5030811;28;20042;-73
2022/06/13 08:29:37;;;;;;;3.47;1.13;;;22.50;53.30;;;;;;5032111;28;20025;-73
2022/06/13 08:32:04;;;;;;;4.65;1.25;;;22.40;52.10;;;;;;5031853;28;20033;-73
2022/06/13 08:34:30;;;;;;;4.07;0.98;;;22.00;50.00;;;;;;5032129;28;20038;-73
2022/06/13 08:36:57;;;;;;;4.15;1.05;;;22.50;48.90;;;;;;5031933;28;20036;-73
2022/06/13 08:39:24;;;;;;;3.17;1.05;;;22.30;48.90;;;;;;5031003;28;20038;-73
2022/06/13 08:42:19;;;;;;;3.72;1.15;;;22.30;48.70;;;;;;5031880;28;20037;-73
2022/06/13 08:45:17;;;;;;;5.45;1.27;;;23.30;48.30;;;;;;5031526;28;20049;-73
2022/06/13 08:47:53;;;;;;;6.70;1.35;;;23.00;48.50;;;;;;5031207;28;20037;-72
2022/06/13 08:50:37;;;;;;;2.35;0.90;;;22.90;48.10;;;;;;5032017;28;20371;-73
2022/06/13 08:53:12;;;;;;;2.88;0.82;;;22.50;48.90;;;;;;5032512;28;20046;-73
2022/06/13 08:55:47;;;;;;;4.80;1.50;;;22.20;49.30;;;;;;5032393;28;20030;-72
2022/06/13 08:58:34;;;;;;;2.92;0.77;;;23.00;47.70;;;;;;5036781;28;20056;-74
2022/06/13 09:01:09;;;;;;;2.95;0.90;;;22.40;48.40;;;;;;5032744;28;20036;-75
2022/06/13 09:04:03;;;;;;;6.43;1.27;;;22.70;50.00;;;;;;5030783;28;20164;-75
2022/06/13 09:06:39;;;;;;;6.80;1.58;;;23.00;49.80;;;;;;5032006;28;20382;-73
2022/06/13 09:09:15;;;;;;;4.93;1.38;;;22.20;48.00;;;;;;5030350;28;20038;-75
2022/06/13 09:11:51;;;;;;;4.05;0.98;;;22.40;48.20;;;;;;5032623;28;20033;-73
2022/06/13 09:14:40;;;;;;;4.80;1.55;;;22.70;48.00;;;;;;5036034;28;20072;-73
2022/06/13 09:17:18;;;;;;;3.70;1.30;;;23.10;48.20;;;;;;5037026;28;20041;-74
2022/06/13 09:19:54;;;;;;;3.95;1.33;;;24.10;48.40;;;;;;5043183;28;20075;-73
2022/06/13 09:22:30;;;;;;;3.85;1.20;;;23.70;48.40;;;;;;5031690;28;20034;-74
2022/06/13 09:25:10;;;;;;;4.57;1.30;;;22.90;49.40;;;;;;5033797;28;20037;-72
2022/06/13 09:27:51;;;;;;;5.03;1.20;;;22.20;49.60;;;;;;5049368;28;20044;-73
2022/06/13 09:30:22;;;;;;;2.15;0.93;;;23.40;48.20;;;;;;5037860;28;20033;-73
2022/06/13 09:32:55;;;;;;;5.50;1.70;;;24.10;48.20;;;;;;5035050;28;20471;-73
2022/06/13 09:35:31;;;;;;;4.35;1.33;;;23.10;48.10;;;;;;5031183;28;20360;-73
2022/06/13 09:38:36;;;;;;;4.40;1.40;;;23.70;47.80;;;;;;5039955;28;20064;-73
2022/06/13 09:41:02;;;;;;;3.05;0.90;;;24.20;46.90;;;;;;5029581;28;20402;-74
2022/06/13 09:43:46;;;;;;;4.53;1.10;;;23.50;47.90;;;;;;5031685;28;20038;-70
2022/06/13 09:46:38;;;;;;;6.93;1.95;;;23.90;47.80;;;;;;5031168;28;20037;-70
2022/06/13 09:49:36;;;;;;;3.95;1.08;;;24.20;46.50;;;;;;5046713;28;20037;-71
2022/06/13 09:52:16;;;;;;;4.82;1.70;;;22.70;48.80;;;;;;5044767;28;20155;-72
2022/06/13 09:55:01;;;;;;;2.88;1.20;;;22.10;48.60;;;;;;5044755;28;20379;-73
2022/06/13 09:58:03;;;;;;;4.40;1.27;;;21.90;49.80;;;;;;5035699;28;20042;-73
2022/06/13 10:00:43;;;;;;;3.38;1.27;;;21.70;49.50;;;;;;5044517;28;20391;-73
2022/06/13 10:04:04;;;;;;;2.28;1.02;;;22.10;49.50;;;;;;5034138;28;20042;-72
2022/06/13 10:06:42;;;;;;;3.65;1.55;;;21.70;49.00;;;;;;5031604;28;20077;-73
2022/06/13 10:09:19;;;;;;;2.58;1.02;;;22.00;49.30;;;;;;5038313;28;20049;-72
2022/06/13 10:12:07;;;;;;;3.72;0.93;;;22.70;47.00;;;;;;5045226;28;20051;-73
2022/06/13 10:14:58;;;;;;;3.05;0.82;;;23.40;46.10;;;;;;5034932;28;20045;-74
2022/06/13 10:17:58;;;;;;;2.97;1.17;;;22.70;45.80;;;;;;5038550;28;20075;-73
2022/06/13 10:20:39;;;;;;;5.60;1.52;;;22.10;46.90;;;;;;5036421;28;20045;-75
2022/06/13 10:23:29;;;;;;;5.82;1.20;;;21.80;46.90;;;;;;5033882;28;20029;-74
2022/06/13 10:26:16;;;;;;;4.97;1.38;;;21.80;47.10;;;;;;5034837;28;20034;-73
2022/06/13 10:29:03;;;;;;;5.53;1.20;;;22.10;47.50;;;;;;5034493;28;20033;-72
2022/06/13 10:31:51;;;;;;;2.80;1.38;;;22.10;48.30;;;;;;5032934;28;21083;-72
2022/06/13 10:34:48;;;;;;;4.55;1.00;;;22.40;47.00;;;;;;5033822;28;20410;-71
2022/06/13 10:37:40;;;;;;;3.13;1.00;;;22.40;47.20;;;;;;5033811;28;20471;-72
2022/06/13 10:40:07;;;;;;;3.55;1.70;;;23.00;46.40;;;;;;5047628;28;20040;-73
2022/06/13 10:42:35;;;;;;;4.07;1.38;;;23.50;46.00;;;;;;5038592;28;20046;-71
2022/06/13 10:45:06;;;;;;;3.67;1.13;;;23.30;45.60;;;;;;5041585;28;20029;-73
2022/06/13 10:47:49;;;;;;;5.43;1.20;;;23.60;46.10;;;;;;5034158;28;20029;-73
2022/06/13 10:50:28;;;;;;;4.32;1.20;;;23.70;47.10;;;;;;5033366;28;20025;-71
2022/06/13 10:53:00;;;;;;;3.63;1.33;;;22.80;47.20;;;;;;5047830;28;20052;-71
2022/06/13 10:55:30;;;;;;;4.45;1.80;;;22.70;47.20;;;;;;5033464;28;20041;-71
2022/06/13 10:58:15;;;;;;;4.25;1.50;;;22.70;47.10;;;;;;5034312;28;20037;-72
2022/06/13 11:01:05;;;;;;;3.63;1.25;;;22.90;47.00;;;;;;5038989;28;20033;-71
2022/06/13 11:03:31;;;;;;;4.25;1.13;;;22.70;47.20;;;;;;5035906;28;20026;-72
2022/06/13 11:06:02;;;;;;;5.63;1.10;;;22.80;46.70;;;;;;5033982;28;20036;-71
2022/06/13 11:08:29;;;;;;;4.63;1.10;;;23.20;46.90;;;;;;5033462;28;20048;-72
2022/06/13 11:10:58;;;;;;;4.18;1.17;;;23.30;47.10;;;;;;5052402;28;20493;-71
2022/06/13 11:13:34;;;;;;;2.67;1.13;;;23.60;46.00;;;;;;5045213;28;20386;-72
2022/06/13 11:22:40;;;;;;;4.57;1.30;;;23.10;46.60;;;;;;5032390;28;20410;-73
2022/06/13 11:25:12;;;;;;;4.20;1.50;;;23.30;46.90;;;;;;5043385;28;20045;-73
2022/06/13 11:27:40;;;;;;;5.75;1.60;;;22.90;46.30;;;;;;5033473;28;20125;-72
2022/06/13 11:33:16;;;;;;;5.22;1.33;;;23.50;46.80;;;;;;5033343;28;20040;-73
2022/06/13 11:36:18;;;;;;;2.88;1.08;;;23.30;46.10;;;;;;5049099;28;20037;-73
2022/06/13 11:39:00;;;;;;;2.85;1.00;;;23.30;46.70;;;;;;5033392;28;20041;-72
2022/06/13 11:41:44;;;;;;;1.65;0.85;;;23.40;46.60;;;;;;5033109;28;20038;-73
2022/06/13 11:44:14;;;;;;;3.55;1.08;;;23.50;46.60;;;;;;5038797;28;20482;-72
2022/06/13 11:46:55;;;;;;;2.63;1.27;;;23.40;45.90;;;;;;5033077;28;20471;-73
2022/06/13 11:49:36;;;;;;;5.10;1.65;;;23.20;46.60;;;;;;5047152;28;20033;-73
2022/06/13 11:52:11;;;;;;;4.00;1.38;;;23.30;47.50;;;;;;5033385;28;20033;-73
2022/06/13 11:54:47;;;;;;;4.95;1.20;;;23.80;47.80;;;;;;5032808;28;20036;-72
2022/06/13 11:57:13;;;;;;;2.25;0.98;;;24.40;45.00;;;;;;5032440;28;20037;-72
2022/06/13 11:59:55;;;;;;;4.03;1.30;;;24.60;44.20;;;;;;5041364;28;20038;-72
2022/06/13 12:02:36;;;;;;;5.75;1.23;;;24.10;44.30;;;;;;5032146;28;20475;-73
2022/06/13 12:05:14;;;;;;;2.72;1.30;;;23.60;44.40;;;;;;5052656;28;20036;-72
2022/06/13 12:08:00;;;;;;;2.60;0.95;;;23.90;46.10;;;;;;5033245;28;20025;-72
2022/06/13 12:10:31;;;;;;;4.88;0.98;;;24.60;44.70;;;;;;5033985;28;20033;-71
2022/06/13 12:12:57;;;;;;;4.82;1.10;;;24.70;43.60;;;;;;5041881;28;20060;-72
2022/06/13 12:15:52;;;;;;;2.85;1.10;;;24.30;43.30;;;;;;5031907;28;20025;-72
2022/06/13 12:18:26;;;;;;;4.05;1.10;;;24.20;43.00;;;;;;5045568;28;20470;-73
2022/06/13 12:21:03;;;;;;;3.50;1.48;;;23.90;43.60;;;;;;5039536;28;20041;-71
2022/06/13 12:23:39;;;;;;;3.70;1.20;;;23.80;43.20;;;;;;5046337;28;20029;-72
2022/06/13 12:26:21;;;;;;;3.22;1.38;;;24.20;43.90;;;;;;5031724;28;20048;-72
2022/06/13 12:29:01;;;;;;;4.63;1.15;;;24.10;43.20;;;;;;5032380;28;20048;-73
2022/06/13 12:31:28;;;;;;;;;;;24.60;43.80;;;;;;5032182;28;20034;-72
2022/06/13 12:34:35;;;;;;;2.28;0.93;;;24.30;43.20;;;;;;5049925;28;19909;-73
2022/06/13 12:37:31;;;;;;;4.00;1.23;;;24.00;42.90;;;;;;5032511;28;20092;-72
2022/06/13 12:40:18;;;;;;;2.55;1.02;;;23.50;44.10;;;;;;5032043;28;20061;-72
2022/06/13 12:43:17;;;;;;;2.95;0.88;;;23.50;43.50;;;;;;5047015;28;20029;-73
2022/06/13 12:45:48;;;;;;;2.95;1.48;;;23.60;44.40;;;;;;5040088;28;20041;-72
2022/06/13 12:48:26;;;;;;;3.75;1.10;;;24.00;42.60;;;;;;5049047;28;20045;-73
2022/06/13 12:51:15;;;;;;;5.00;1.05;;;24.10;43.60;;;;;;5032425;28;20047;-72
2022/06/13 12:54:14;;;;;;;4.05;1.20;;;24.20;44.60;;;;;;5032389;28;20337;-72
2022/06/13 12:56:57;;;;;;;3.28;1.30;;;24.20;43.40;;;;;;5039560;28;20036;-71
2022/06/13 12:59:42;;;;;;;3.70;1.13;;;23.80;42.80;;;;;;5042824;28;20064;-73
2022/06/13 13:02:14;;;;;;;3.60;1.30;;;23.50;43.90;;;;;;5036801;28;20467;-73
2022/06/13 13:05:02;;;;;;;4.82;1.00;;;23.60;43.40;;;;;;5045070;28;20029;-71
2022/06/13 13:07:37;;;;;;;3.40;1.40;;;23.30;43.50;;;;;;5032383;28;20032;-72
2022/06/13 13:10:24;;;;;;;4.03;1.23;;;23.60;43.80;;;;;;5031881;28;20455;-73
2022/06/13 13:12:54;;;;;;;6.03;1.33;;;24.00;44.40;;;;;;5032230;28;20044;-72
2022/06/13 13:15:23;;;;;;;2.93;1.00;;;24.50;44.40;;;;;;5031360;28;20378;-72
2022/06/13 13:18:23;;;;;;;5.70;1.13;;;24.80;42.90;;;;;;5031673;28;20622;-72
2022/06/13 13:20:58;;;;;;;3.03;1.35;;;25.10;43.60;;;;;;5031638;28;20398;-73
2022/06/13 13:23:31;;;;;;;5.60;1.77;;;25.70;42.90;;;;;;5046827;28;20057;-71
2022/06/13 13:26:12;;;;;;;5.75;1.58;;;26.10;41.60;;;;;;5034058;28;20025;-71
2022/06/13 13:28:48;;;;;;;3.65;1.48;;;25.80;42.30;;;;;;5034586;28;20037;-71
2022/06/13 13:31:22;;;;;;;5.45;1.50;;;25.20;42.90;;;;;;5033890;28;20513;-72
2022/06/13 13:34:25;;;;;;;3.95;1.20;;;25.10;42.60;;;;;;5036302;28;20041;-71
2022/06/13 13:37:13;;;;;;;3.13;1.20;;;25.10;44.30;;;;;;5035265;28;20029;-71
2022/06/13 13:39:51;;;;;;;3.92;1.65;;;25.00;43.30;;;;;;5050134;28;20037;-73
2022/06/13 13:42:35;;;;;;;10.73;1.92;;;24.60;44.70;;;;;;5034907;28;20037;-72
2022/06/13 13:45:25;;;;;;;3.60;1.38;;;24.00;45.20;;;;;;5035697;28;20046;-72
2022/06/13 13:47:56;;;;;;;3.63;1.20;;;23.70;45.00;;;;;;5046985;28;20029;-73
2022/06/13 13:50:26;;;;;;;3.35;1.40;;;23.50;45.40;;;;;;5034940;28;20041;-72
2022/06/13 13:52:57;;;;;;;4.60;1.77;;;23.30;45.40;;;;;;5052338;28;20040;-72
2022/06/13 13:55:30;;;;;;;3.38;1.38;;;23.70;45.50;;;;;;5038959;28;20040;-72
2022/06/13 13:58:23;;;;;;;5.82;1.70;;;23.90;45.00;;;;;;5034770;28;20034;-74